createdAt,value
2018-11-03T00:01:54.693Z,32.23
2018-11-03T00:04:23.420Z,30.33
2018-11-03T00:06:52.148Z,29.67
2018-11-03T00:09:20.811Z,29.43
2018-11-03T00:11:49.552Z,30.37
2018-11-03T00:14:18.218Z,29.33
2018-11-03T00:16:46.910Z,29.27
2018-11-03T00:19:15.647Z,34.80
2018-11-03T00:21:44.285Z,45.23
2018-11-03T00:24:12.956Z,50.07
2018-11-03T00:26:41.685Z,48.83
2018-11-03T00:29:10.783Z,37.17
2018-11-03T00:31:39.523Z,41.73
2018-11-03T00:34:08.237Z,36.20
2018-11-03T00:36:36.928Z,31.50
2018-11-03T00:39:08.641Z,29.77
2018-11-03T00:41:37.330Z,30.13
2018-11-03T00:44:06.689Z,29.93
2018-11-03T00:46:35.344Z,28.97
2018-11-03T00:49:04.078Z,29.20
2018-11-03T00:51:32.909Z,28.93
2018-11-03T00:54:01.687Z,28.57
2018-11-03T00:56:30.304Z,29.17
2018-11-03T00:58:59.069Z,30.17
2018-11-03T01:01:27.777Z,30.17
2018-11-03T01:03:56.426Z,28.40
2018-11-03T01:06:25.138Z,29.83
2018-11-03T01:08:53.783Z,30.10
2018-11-03T01:11:22.494Z,30.50
2018-11-03T01:13:51.141Z,28.40
2018-11-03T01:16:19.877Z,27.73
2018-11-03T01:18:48.513Z,28.37
2018-11-03T01:21:17.240Z,28.07
2018-11-03T01:23:45.955Z,27.27
2018-11-03T01:26:14.550Z,30.30
2018-11-03T01:28:43.226Z,29.17
2018-11-03T01:31:11.849Z,29.47
2018-11-03T01:33:40.482Z,28.30
2018-11-03T01:36:09.237Z,30.73
2018-11-03T01:38:38.001Z,29.33
2018-11-03T01:41:06.676Z,28.53
2018-11-03T01:43:35.305Z,28.53
2018-11-03T01:46:03.995Z,28.53
2018-11-03T01:48:32.730Z,28.87
2018-11-03T01:51:01.375Z,29.07
2018-11-03T01:53:30.019Z,29.43
2018-11-03T01:55:58.675Z,31.50
2018-11-03T01:58:27.345Z,30.23
2018-11-03T02:00:56.087Z,30.07
2018-11-03T02:03:24.760Z,30.13
2018-11-03T02:05:53.410Z,30.93
2018-11-03T02:08:22.070Z,31.13
2018-11-03T02:10:50.699Z,31.93
2018-11-03T02:13:19.355Z,30.00
2018-11-03T02:15:47.968Z,31.10
2018-11-03T02:18:16.618Z,30.47
2018-11-03T02:20:45.347Z,29.20
2018-11-03T02:23:14.069Z,31.07
2018-11-03T02:25:42.729Z,31.20
2018-11-03T02:28:11.441Z,32.50
2018-11-03T02:30:40.154Z,31.30
2018-11-03T02:33:08.771Z,30.87
2018-11-03T02:35:37.506Z,31.10
2018-11-03T02:38:06.210Z,32.07
2018-11-03T02:40:34.962Z,32.73
2018-11-03T02:43:03.589Z,31.97
2018-11-03T02:45:32.259Z,32.33
2018-11-03T02:48:00.958Z,33.27
2018-11-03T02:50:29.701Z,32.70
2018-11-03T02:52:58.382Z,33.03
2018-11-03T02:55:27.010Z,32.23
2018-11-03T02:57:55.678Z,32.50
2018-11-03T03:00:24.397Z,31.77
2018-11-03T03:02:53.057Z,32.50
2018-11-03T03:05:21.725Z,33.87
2018-11-03T03:07:50.401Z,33.17
2018-11-03T03:10:19.073Z,33.17
2018-11-03T03:12:47.746Z,33.80
2018-11-03T03:15:16.461Z,35.10
2018-11-03T03:17:45.192Z,33.03
2018-11-03T03:20:13.937Z,32.57
2018-11-03T03:22:42.866Z,32.93
2018-11-03T03:25:12.218Z,34.27
2018-11-03T03:27:40.958Z,32.97
2018-11-03T03:30:10.197Z,33.47
2018-11-03T03:32:38.910Z,32.33
2018-11-03T03:35:07.849Z,33.13
2018-11-03T03:37:36.501Z,32.37
2018-11-03T03:40:06.067Z,35.53
2018-11-03T03:42:35.057Z,38.23
2018-11-03T03:45:03.713Z,34.70
2018-11-03T03:47:32.388Z,35.90
2018-11-03T03:50:01.013Z,34.03
2018-11-03T03:52:29.685Z,34.13
2018-11-03T03:54:58.667Z,31.13
2018-11-03T03:57:27.302Z,31.63
2018-11-03T03:59:55.955Z,32.10
2018-11-03T04:02:24.585Z,30.40
2018-11-03T04:04:53.226Z,30.90
2018-11-03T04:07:22.031Z,31.70
2018-11-03T04:09:51.381Z,30.63
2018-11-03T04:12:20.165Z,30.93
2018-11-03T04:14:48.837Z,30.40
2018-11-03T04:17:17.513Z,31.57
2018-11-03T04:19:46.132Z,30.03
2018-11-03T04:22:14.786Z,30.73
2018-11-03T04:24:43.699Z,29.23
2018-11-03T04:27:12.968Z,30.43
2018-11-03T04:29:41.599Z,30.23
2018-11-03T04:32:10.287Z,29.57
2018-11-03T04:34:38.934Z,29.97
2018-11-03T04:37:07.633Z,30.70
2018-11-03T04:39:36.290Z,29.80
2018-11-03T04:42:05.138Z,31.90
2018-11-03T04:44:33.762Z,31.77
2018-11-03T04:47:02.449Z,33.43
2018-11-03T04:49:31.092Z,32.90
2018-11-03T04:51:59.770Z,31.50
2018-11-03T04:54:28.461Z,30.17
2018-11-03T04:56:57.096Z,31.33
2018-11-03T04:59:25.779Z,30.90
2018-11-03T05:01:54.434Z,32.63
2018-11-03T05:04:23.121Z,32.20
2018-11-03T05:06:51.794Z,30.57
2018-11-03T05:09:20.404Z,29.60
2018-11-03T05:11:49.096Z,30.50
2018-11-03T05:14:17.760Z,29.73
2018-11-03T05:16:46.497Z,29.67
2018-11-03T05:19:15.557Z,31.53
2018-11-03T05:21:44.269Z,31.17
2018-11-03T05:24:12.959Z,30.43
2018-11-03T05:26:41.595Z,31.43
2018-11-03T05:29:10.295Z,30.50
2018-11-03T05:31:39.080Z,30.63
2018-11-03T05:34:07.709Z,30.80
2018-11-03T05:36:36.345Z,29.73
2018-11-03T05:39:07.356Z,29.80
2018-11-03T05:41:36.047Z,29.47
2018-11-03T05:44:04.758Z,29.93
2018-11-03T05:46:33.594Z,31.63
2018-11-03T05:49:02.110Z,28.80
2018-11-03T05:51:30.768Z,32.30
2018-11-03T05:53:59.477Z,30.40
2018-11-03T05:56:28.114Z,32.23
2018-11-03T05:58:56.851Z,30.73
2018-11-03T06:01:25.518Z,29.53
2018-11-03T06:03:54.243Z,30.97
2018-11-03T06:06:22.911Z,29.63
2018-11-03T06:08:52.133Z,32.03
2018-11-03T06:11:20.657Z,29.17
2018-11-03T06:13:49.333Z,27.37
2018-11-03T06:16:18.050Z,26.97
2018-11-03T06:18:46.690Z,27.40
2018-11-03T06:21:15.351Z,29.80
2018-11-03T06:23:44.121Z,38.93
2018-11-03T06:26:12.712Z,38.03
2018-11-03T06:28:41.357Z,34.97
2018-11-03T06:31:09.997Z,35.40
2018-11-03T06:33:38.670Z,33.07
2018-11-03T06:36:07.394Z,33.40
2018-11-03T06:38:36.131Z,31.90
2018-11-03T06:41:05.304Z,32.93
2018-11-03T06:43:33.974Z,33.07
2018-11-03T06:46:02.809Z,35.33
2018-11-03T06:48:31.498Z,33.67
2018-11-03T06:51:00.210Z,33.53
2018-11-03T06:53:29.014Z,32.20
2018-11-03T06:56:04.296Z,34.90
2018-11-03T06:58:32.989Z,33.73
2018-11-03T07:01:01.659Z,32.10
2018-11-03T07:03:30.350Z,32.07
2018-11-03T07:05:58.950Z,33.03
2018-11-03T07:08:27.627Z,32.43
2018-11-03T07:10:56.297Z,32.80
2018-11-03T07:13:25.151Z,34.30
2018-11-03T07:15:53.682Z,32.67
2018-11-03T07:18:22.350Z,34.10
2018-11-03T07:20:51.084Z,34.27
2018-11-03T07:23:19.746Z,34.77
2018-11-03T07:25:48.361Z,35.97
2018-11-03T07:28:17.071Z,32.60
2018-11-03T07:30:45.726Z,27.43
2018-11-03T07:33:14.407Z,28.63
2018-11-03T07:35:43.076Z,26.80
2018-11-03T07:38:11.778Z,28.17
2018-11-03T07:40:40.519Z,28.43
2018-11-03T07:43:09.416Z,28.20
2018-11-03T07:45:38.115Z,28.40
2018-11-03T07:48:06.996Z,27.43
2018-11-03T07:50:35.558Z,28.87
2018-11-03T07:53:04.564Z,25.33
2018-11-03T07:55:33.312Z,26.40
2018-11-03T07:58:02.063Z,27.70
2018-11-03T08:00:30.863Z,29.13
2018-11-03T08:02:59.926Z,27.77
2018-11-03T08:05:29.353Z,26.47
2018-11-03T08:07:58.093Z,24.83
2018-11-03T08:10:26.837Z,25.67
2018-11-03T08:12:55.838Z,23.37
2018-11-03T08:15:24.906Z,24.63
2018-11-03T08:17:53.637Z,25.90
2018-11-03T08:20:22.341Z,25.80
2018-11-03T08:22:51.001Z,25.60
2018-11-03T08:25:19.732Z,24.97
2018-11-03T08:27:48.466Z,22.40
2018-11-03T08:30:17.260Z,24.83
2018-11-03T08:32:46.461Z,24.40
2018-11-03T08:35:15.182Z,24.83
2018-11-03T08:37:44.190Z,25.57
2018-11-03T08:40:13.378Z,25.23
2018-11-03T08:42:42.221Z,25.30
2018-11-03T08:45:11.749Z,23.47
2018-11-03T08:47:40.841Z,25.00
2018-11-03T08:50:10.926Z,24.50
2018-11-03T08:52:39.832Z,25.17
2018-11-03T08:55:09.590Z,25.03
2018-11-03T08:57:38.321Z,23.50
2018-11-03T09:00:11.133Z,24.50
2018-11-03T09:02:40.249Z,24.32
2018-11-03T09:05:09.715Z,22.73
2018-11-03T09:07:38.843Z,21.70
2018-11-03T09:10:09.473Z,20.80
2018-11-03T09:12:38.447Z,23.07
2018-11-03T09:15:09.171Z,22.07
2018-11-03T09:17:38.794Z,20.48
2018-11-03T09:20:08.665Z,20.52
2018-11-03T09:22:38.200Z,22.05
2018-11-03T09:25:08.598Z,22.48
2018-11-03T09:27:37.522Z,21.97
2018-11-03T09:30:12.197Z,23.07
2018-11-03T09:32:41.132Z,21.60
2018-11-03T09:35:11.336Z,20.65
2018-11-03T09:37:40.615Z,19.27
2018-11-03T09:40:13.809Z,19.42
2018-11-03T09:42:43.410Z,19.25
2018-11-03T09:45:12.760Z,19.20
2018-11-03T09:47:41.898Z,20.60
2018-11-03T09:50:12.270Z,18.02
2018-11-03T09:52:41.746Z,17.70
2018-11-03T09:55:13.111Z,17.40
2018-11-03T09:57:42.109Z,16.50
2018-11-03T10:00:13.485Z,17.32
2018-11-03T10:02:42.677Z,17.62
2018-11-03T10:05:12.706Z,17.32
2018-11-03T10:07:41.436Z,15.72
2018-11-03T10:10:13.380Z,15.20
2018-11-03T10:12:42.557Z,16.35
2018-11-03T10:15:12.488Z,16.70
2018-11-03T10:17:42.625Z,17.42
2018-11-03T10:20:11.380Z,16.40
2018-11-03T10:22:40.141Z,16.52
2018-11-03T10:25:12.905Z,16.07
2018-11-03T10:27:41.943Z,15.53
2018-11-03T10:30:11.766Z,15.10
2018-11-03T10:32:41.054Z,14.68
2018-11-03T10:35:10.972Z,14.38
2018-11-03T10:37:39.718Z,14.50
2018-11-03T10:40:10.697Z,12.98
2018-11-03T10:42:39.679Z,13.50
2018-11-03T10:45:10.445Z,13.58
2018-11-03T10:47:39.888Z,13.08
2018-11-03T10:50:11.416Z,13.20
2018-11-03T10:52:41.316Z,13.20
2018-11-03T10:55:11.945Z,13.30
2018-11-03T10:57:41.309Z,13.05
2018-11-03T11:00:15.658Z,13.30
2018-11-03T11:02:49.934Z,12.88
2018-11-03T11:05:23.891Z,13.62
2018-11-03T11:07:58.107Z,12.93
2018-11-03T11:10:32.298Z,11.78
2018-11-03T11:13:04.105Z,13.22
2018-11-03T11:15:32.845Z,12.70
2018-11-03T11:18:01.646Z,14.50
2018-11-03T11:20:30.494Z,14.78
2018-11-03T11:22:59.368Z,14.60
2018-11-03T11:25:28.344Z,10.60
2018-11-03T11:27:57.442Z,9.53
2018-11-03T11:30:30.350Z,9.00
2018-11-03T11:32:59.153Z,7.87
2018-11-03T11:35:27.983Z,7.22
2018-11-03T11:37:56.805Z,7.70
2018-11-03T11:40:25.655Z,7.95
2018-11-03T11:42:54.524Z,7.30
2018-11-03T11:45:23.247Z,6.47
2018-11-03T11:47:51.960Z,5.85
2018-11-03T11:50:21.642Z,5.85
2018-11-03T11:52:50.468Z,6.60
2018-11-03T11:55:19.269Z,6.25
2018-11-03T11:57:48.277Z,7.00
2018-11-03T12:00:16.983Z,5.65
2018-11-03T12:02:45.670Z,5.35
2018-11-03T12:05:14.638Z,5.42
2018-11-03T12:07:43.321Z,5.10
2018-11-03T12:10:12.047Z,5.30
2018-11-03T12:12:40.648Z,4.90
2018-11-03T12:15:10.373Z,4.53
2018-11-03T12:17:39.070Z,5.05
2018-11-03T12:20:08.123Z,5.20
2018-11-03T12:22:37.065Z,4.60
2018-11-03T12:25:06.521Z,4.67
2018-11-03T12:27:35.184Z,5.42
2018-11-03T12:30:07.927Z,5.53
2018-11-03T12:32:36.645Z,5.40
2018-11-03T12:35:05.652Z,5.80
2018-11-03T12:37:34.449Z,5.87
2018-11-03T12:40:03.120Z,5.37
2018-11-03T12:42:31.762Z,5.47
2018-11-03T12:45:00.458Z,5.70
2018-11-03T12:47:29.134Z,5.20
2018-11-03T12:50:00.779Z,6.00
2018-11-03T12:52:30.721Z,5.35
2018-11-03T12:54:59.749Z,4.40
2018-11-03T12:57:28.498Z,5.10
2018-11-03T12:59:57.152Z,5.33
2018-11-03T13:02:25.784Z,6.17
2018-11-03T13:04:54.465Z,6.33
2018-11-03T13:07:23.164Z,5.47
2018-11-03T13:09:52.059Z,6.60
2018-11-03T13:12:20.760Z,6.90
2018-11-03T13:14:49.379Z,6.90
2018-11-03T13:17:17.997Z,6.43
2018-11-03T13:19:46.811Z,6.20
2018-11-03T13:22:15.445Z,5.77
2018-11-03T13:24:44.120Z,6.30
2018-11-03T13:27:12.781Z,6.37
2018-11-03T13:29:41.449Z,5.90
2018-11-03T13:32:10.810Z,5.57
2018-11-03T13:34:39.465Z,5.27
2018-11-03T13:37:08.099Z,5.53
2018-11-03T13:39:36.813Z,6.23
2018-11-03T13:42:05.622Z,7.07
2018-11-03T13:44:34.224Z,6.63
2018-11-03T13:47:02.956Z,6.63
2018-11-03T13:49:31.686Z,6.57
2018-11-03T13:52:00.301Z,6.93
2018-11-03T13:54:29.237Z,7.40
2018-11-03T13:56:57.946Z,7.43
2018-11-03T13:59:26.608Z,7.80
2018-11-03T14:01:55.558Z,7.60
2018-11-03T14:04:24.239Z,7.63
2018-11-03T14:06:52.967Z,8.37
2018-11-03T14:09:21.601Z,8.17
2018-11-03T14:11:50.244Z,7.73
2018-11-03T14:14:18.860Z,9.07
2018-11-03T14:16:47.476Z,8.17
2018-11-03T14:19:16.186Z,8.30
2018-11-03T14:21:44.831Z,8.40
2018-11-03T14:24:13.577Z,8.53
2018-11-03T14:26:42.238Z,8.93
2018-11-03T14:29:10.993Z,9.60
2018-11-03T14:31:39.638Z,11.00
2018-11-03T14:34:09.513Z,9.77
2018-11-03T14:36:38.274Z,9.90
2018-11-03T14:39:08.576Z,10.70
2018-11-03T14:41:37.204Z,11.20
2018-11-03T14:44:06.954Z,11.60
2018-11-03T14:46:35.628Z,11.23
2018-11-03T14:49:04.266Z,11.07
2018-11-03T14:51:32.910Z,12.07
2018-11-03T14:54:01.568Z,12.10
2018-11-03T14:56:30.225Z,11.63
2018-11-03T14:58:58.975Z,12.47
2018-11-03T15:01:27.651Z,12.47
2018-11-03T15:03:56.301Z,13.03
2018-11-03T15:06:25.038Z,12.47
2018-11-03T15:08:53.706Z,12.30
2018-11-03T15:11:22.313Z,12.23
2018-11-03T15:13:51.087Z,13.20
2018-11-03T15:16:19.654Z,12.97
2018-11-03T15:18:48.353Z,12.97
2018-11-03T15:21:17.013Z,13.07
2018-11-03T15:23:45.691Z,14.23
2018-11-03T15:26:14.313Z,13.90
2018-11-03T15:28:42.933Z,14.20
2018-11-03T15:31:11.646Z,14.47
2018-11-03T15:33:40.321Z,14.80
2018-11-03T15:36:09.029Z,13.63
2018-11-03T15:38:37.728Z,14.47
2018-11-03T15:41:06.623Z,15.17
2018-11-03T15:43:35.261Z,14.37
2018-11-03T15:46:03.945Z,15.70
2018-11-03T15:48:32.545Z,14.27
2018-11-03T15:51:01.194Z,15.43
2018-11-03T15:53:29.855Z,17.23
2018-11-03T15:55:58.485Z,17.83
2018-11-03T15:58:27.148Z,17.00
2018-11-03T16:00:55.904Z,18.67
2018-11-03T16:03:24.530Z,18.83
2018-11-03T16:05:53.153Z,18.43
2018-11-03T16:08:21.793Z,18.67
2018-11-03T16:10:50.433Z,18.13
2018-11-03T16:13:19.153Z,18.30
2018-11-03T16:15:47.829Z,18.47
2018-11-03T16:18:16.482Z,18.10
2018-11-03T16:20:45.351Z,18.70
2018-11-03T16:23:13.977Z,17.10
2018-11-03T16:25:42.690Z,16.47
2018-11-03T16:28:11.396Z,18.03
2018-11-03T16:30:40.098Z,17.60
2018-11-03T16:33:08.747Z,18.00
2018-11-03T16:35:37.497Z,18.67
2018-11-03T16:38:06.144Z,19.23
2018-11-03T16:40:35.102Z,19.33
2018-11-03T16:43:03.745Z,17.93
2018-11-03T16:45:32.493Z,19.03
2018-11-03T16:48:01.109Z,19.07
2018-11-03T16:50:29.718Z,19.30
2018-11-03T16:52:58.365Z,19.17
2018-11-03T16:55:27.253Z,21.17
2018-11-03T16:57:55.872Z,20.67
2018-11-03T17:00:24.583Z,22.40
2018-11-03T17:02:53.220Z,23.70
2018-11-03T17:05:21.858Z,24.37
2018-11-03T17:07:50.482Z,26.30
2018-11-03T17:10:19.128Z,25.87
2018-11-03T17:12:48.301Z,29.07
2018-11-03T17:15:17.233Z,27.70
2018-11-03T17:17:45.882Z,28.53
2018-11-03T17:20:14.581Z,28.70
2018-11-03T17:22:43.371Z,31.37
2018-11-03T17:25:12.893Z,32.40
2018-11-03T17:27:41.653Z,31.83
2018-11-03T17:30:13.041Z,32.23
2018-11-03T17:32:41.774Z,31.73
2018-11-03T17:35:10.806Z,31.63
2018-11-03T17:37:39.467Z,30.40
2018-11-03T17:40:09.066Z,31.33
2018-11-03T17:42:37.777Z,32.43
2018-11-03T17:45:07.186Z,31.97
2018-11-03T17:47:35.984Z,33.60
2018-11-03T17:50:05.160Z,35.73
2018-11-03T17:52:33.868Z,35.37
2018-11-03T17:55:02.610Z,36.23
2018-11-03T17:57:31.651Z,33.00
2018-11-03T18:00:00.352Z,30.63
2018-11-03T18:02:29.045Z,32.73
2018-11-03T18:04:57.725Z,37.77
2018-11-03T18:07:26.413Z,33.87
2018-11-03T18:09:55.054Z,35.87
2018-11-03T18:12:24.614Z,37.10
2018-11-03T18:14:53.368Z,38.93
2018-11-03T18:17:22.553Z,41.23
2018-11-03T18:19:51.276Z,40.03
2018-11-03T18:22:34.613Z,40.17
2018-11-03T18:25:03.589Z,41.53
2018-11-03T18:27:32.230Z,38.77
2018-11-03T18:30:00.862Z,40.17
2018-11-03T18:32:29.634Z,40.20
2018-11-03T18:34:58.287Z,38.37
2018-11-03T18:37:27.010Z,39.60
2018-11-03T18:39:55.732Z,37.40
2018-11-03T18:42:24.479Z,32.03
2018-11-03T18:44:53.170Z,38.17
2018-11-03T18:47:22.036Z,40.60
2018-11-03T18:49:50.758Z,37.97
2018-11-03T18:52:19.872Z,38.23
2018-11-03T18:54:48.597Z,37.57
2018-11-03T18:57:17.298Z,38.50
2018-11-03T18:59:46.144Z,37.43
2018-11-03T19:02:14.994Z,37.93
2018-11-03T19:04:43.865Z,39.57
2018-11-03T19:07:12.541Z,38.87
2018-11-03T19:09:41.228Z,36.53
2018-11-03T19:12:09.867Z,38.40
2018-11-03T19:14:38.566Z,36.53
2018-11-03T19:17:07.360Z,40.57
2018-11-03T19:19:35.989Z,37.07
2018-11-03T19:22:04.801Z,41.03
2018-11-03T19:24:33.478Z,41.13
2018-11-03T19:27:02.214Z,41.67
2018-11-03T19:29:30.898Z,40.27
2018-11-03T19:31:59.677Z,39.77
2018-11-03T19:34:28.458Z,42.10
2018-11-03T19:36:57.199Z,41.67
2018-11-03T19:39:26.486Z,40.00
2018-11-03T19:41:55.148Z,40.80
2018-11-03T19:44:23.827Z,39.87
2018-11-03T19:46:52.577Z,40.60
2018-11-03T19:49:21.249Z,40.47
2018-11-03T19:51:50.115Z,38.80
2018-11-03T19:54:18.746Z,39.83
2018-11-03T19:56:47.382Z,36.73
2018-11-03T19:59:16.005Z,39.77
2018-11-03T20:01:44.691Z,39.93
2018-11-03T20:04:13.309Z,37.83
2018-11-03T20:06:41.909Z,37.17
2018-11-03T20:09:10.563Z,39.00
2018-11-03T20:11:39.236Z,38.20
2018-11-03T20:14:08.046Z,39.17
2018-11-03T20:16:36.689Z,36.73
2018-11-03T20:19:05.523Z,34.33
2018-11-03T20:21:34.189Z,38.87
2018-11-03T20:24:02.805Z,38.80
2018-11-03T20:26:31.561Z,35.13
2018-11-03T20:29:00.227Z,38.10
2018-11-03T20:31:29.133Z,38.67
2018-11-03T20:33:57.815Z,38.30
2018-11-03T20:36:26.466Z,39.37
2018-11-03T20:38:55.117Z,38.27
2018-11-03T20:41:23.746Z,38.80
2018-11-03T20:43:52.388Z,39.73
2018-11-03T20:46:21.041Z,40.80
2018-11-03T20:48:49.732Z,37.77
2018-11-03T20:51:18.384Z,39.33
2018-11-03T20:53:47.152Z,37.87
2018-11-03T20:56:15.800Z,35.93
2018-11-03T20:58:44.409Z,38.37
2018-11-03T21:01:13.033Z,37.53
2018-11-03T21:03:41.818Z,38.80
2018-11-03T21:06:10.498Z,37.33
2018-11-03T21:08:39.213Z,39.57
2018-11-03T21:11:07.947Z,37.90
2018-11-03T21:13:36.577Z,36.40
2018-11-03T21:16:05.333Z,37.90
2018-11-03T21:18:33.998Z,35.03
2018-11-03T21:21:02.697Z,37.33
2018-11-03T21:23:31.541Z,39.23
2018-11-03T21:26:00.033Z,37.73
2018-11-03T21:28:28.669Z,37.47
2018-11-03T21:30:57.393Z,37.70
2018-11-03T21:33:26.179Z,37.27
2018-11-03T21:35:54.733Z,36.63
2018-11-03T21:38:23.438Z,36.20
2018-11-03T21:40:52.120Z,37.37
2018-11-03T21:43:20.758Z,37.43
2018-11-03T21:45:49.448Z,34.23
2018-11-03T21:48:18.083Z,34.70
2018-11-03T21:50:46.732Z,35.97
2018-11-03T21:53:15.445Z,34.63
2018-11-03T21:55:44.183Z,38.83
2018-11-03T21:58:12.814Z,38.30
2018-11-03T22:00:41.520Z,40.93
2018-11-03T22:03:10.169Z,35.97
2018-11-03T22:05:38.810Z,37.77
2018-11-03T22:08:08.477Z,37.43
2018-11-03T22:10:37.140Z,35.07
2018-11-03T22:13:05.878Z,35.23
2018-11-03T22:15:34.578Z,37.03
2018-11-03T22:18:03.311Z,36.17
2018-11-03T22:20:31.990Z,36.20
2018-11-03T22:23:00.646Z,35.63
2018-11-03T22:25:29.410Z,33.37
2018-11-03T22:27:58.085Z,32.83
2018-11-03T22:30:26.725Z,34.63
2018-11-03T22:32:55.411Z,35.27
2018-11-03T22:35:24.040Z,31.53
2018-11-03T22:37:52.692Z,35.43
2018-11-03T22:40:21.342Z,31.97
2018-11-03T22:42:49.962Z,33.17
2018-11-03T22:45:18.598Z,30.37
2018-11-03T22:47:47.279Z,31.90
2018-11-03T22:50:15.896Z,32.23
2018-11-03T22:52:44.672Z,32.53
2018-11-03T22:55:13.434Z,30.93
2018-11-03T22:57:42.074Z,27.20
2018-11-03T23:00:13.317Z,28.63
2018-11-03T23:02:42.601Z,26.23
2018-11-03T23:05:12.377Z,28.37
2018-11-03T23:07:41.221Z,24.80
2018-11-03T23:10:10.062Z,28.53
2018-11-03T23:12:38.822Z,26.53
2018-11-03T23:15:08.396Z,26.93
2018-11-03T23:17:37.101Z,26.07
2018-11-03T23:20:08.187Z,26.00
2018-11-03T23:22:38.051Z,26.40
2018-11-03T23:25:07.300Z,25.30
2018-11-03T23:27:36.042Z,24.87
2018-11-03T23:30:10.188Z,26.13
2018-11-03T23:32:38.800Z,26.93
2018-11-03T23:35:08.806Z,28.17
2018-11-03T23:37:37.509Z,26.27
2018-11-03T23:40:07.183Z,26.20
2018-11-03T23:42:35.884Z,25.73
2018-11-03T23:45:05.090Z,26.60
2018-11-03T23:47:33.762Z,26.47
2018-11-03T23:50:02.501Z,25.60
2018-11-03T23:52:33.081Z,26.13
2018-11-03T23:55:02.721Z,27.20
2018-11-03T23:57:31.362Z,27.27
